Time;durP1;ratioP1;P1;durP2;ratioP2;P2;SDS_P1;SDS_P2;PMS_P1;PMS_P2;Temp;Humidity;BMP_temperature;BMP_pressure;BME280_temperature;BME280_humidity;BME280_pressure;Samples;Min_cycle;Max_cycle;Signal;HPM_P1;HPM_P2
2022/05/18 00:01:56;;;;;;;1.47;1.37;;;14.30;99.90;;;;;;5022107;28;20215;-47
2022/05/18 00:04:25;;;;;;;2.43;1.63;;;14.30;99.90;;;;;;5023932;28;20353;-48
2022/05/18 00:06:52;;;;;;;1.03;0.77;;;14.30;99.90;;;;;;5023509;28;20270;-45
2022/05/18 00:09:19;;;;;;;3.03;0.60;;;14.30;99.90;;;;;;5031537;28;20976;-48
2022/05/18 00:11:46;;;;;;;0.87;0.70;;;14.30;99.90;;;;;;5012099;28;20215;-47
2022/05/18 00:14:13;;;;;;;1.13;0.80;;;14.20;99.90;;;;;;5027960;28;20958;-50
2022/05/18 00:16:41;;;;;;;2.93;0.63;;;14.20;99.90;;;;;;5025406;28;20274;-49
2022/05/18 00:19:08;;;;;;;1.10;0.50;;;14.20;99.90;;;;;;5019403;28;20481;-48
2022/05/18 00:21:35;;;;;;;1.70;0.97;;;14.10;99.90;;;;;;5021099;28;20199;-48
2022/05/18 00:24:04;;;;;;;3.30;1.13;;;14.10;99.90;;;;;;5020479;28;20204;-46
2022/05/18 00:26:32;;;;;;;2.07;0.90;;;14.10;99.90;;;;;;5025059;28;20307;-48
2022/05/18 00:28:59;;;;;;;3.20;0.70;;;14.10;99.90;;;;;;5002993;28;20262;-45
2022/05/18 00:31:26;;;;;;;3.97;1.30;;;14.00;99.90;;;;;;5024566;28;20211;-45
2022/05/18 00:33:54;;;;;;;0.80;0.50;;;14.00;99.90;;;;;;5017871;28;20751;-45
2022/05/18 00:36:20;;;;;;;0.87;0.70;;;14.00;99.90;;;;;;5026636;28;20207;-47
2022/05/18 00:38:47;;;;;;;1.00;0.63;;;13.90;99.90;;;;;;5026961;28;20204;-47
2022/05/18 00:41:19;;;;;;;2.70;0.87;;;13.90;99.90;;;;;;5026874;28;20198;-46
2022/05/18 00:43:47;;;;;;;1.50;0.53;;;13.80;99.90;;;;;;5004535;28;20204;-50
2022/05/18 00:46:15;;;;;;;1.37;0.70;;;13.80;99.90;;;;;;5021690;28;20881;-50
2022/05/18 00:48:43;;;;;;;1.97;0.53;;;13.80;99.90;;;;;;5024722;28;20203;-45
2022/05/18 00:51:17;;;;;;;1.27;0.70;;;13.70;99.90;;;;;;5019599;28;20938;-46
2022/05/18 00:53:49;;;;;;;0.63;0.60;;;13.70;99.90;;;;;;5018785;28;20298;-48
2022/05/18 00:56:19;;;;;;;1.23;0.50;;;13.70;99.90;;;;;;5021137;28;20224;-45
2022/05/18 00:58:51;;;;;;;2.93;0.70;;;13.60;99.90;;;;;;5006637;28;20290;-48
2022/05/18 01:01:18;;;;;;;2.50;0.50;;;13.60;99.90;;;;;;5023677;28;20199;-46
2022/05/18 01:03:48;;;;;;;1.80;0.50;;;13.60;99.90;;;;;;5023998;28;20204;-50
2022/05/18 01:06:24;;;;;;;1.13;0.60;;;13.60;99.90;;;;;;5019649;28;20220;-47
2022/05/18 01:08:57;;;;;;;2.87;0.90;;;13.50;99.90;;;;;;5025555;28;20672;-47
2022/05/18 01:11:25;;;;;;;1.13;0.70;;;13.50;99.90;;;;;;5021769;28;20187;-46
2022/05/18 01:13:52;;;;;;;2.67;0.70;;;13.50;99.90;;;;;;5011206;28;20223;-47
2022/05/18 01:16:20;;;;;;;2.33;0.70;;;13.50;99.90;;;;;;5017305;28;20239;-45
2022/05/18 01:18:50;;;;;;;2.03;0.70;;;13.40;99.90;;;;;;5029491;28;20200;-49
2022/05/18 01:21:18;;;;;;;2.03;0.57;;;13.40;99.90;;;;;;5017004;28;20259;-48
2022/05/18 01:23:53;;;;;;;1.57;0.80;;;13.40;99.90;;;;;;5017861;28;20196;-45
2022/05/18 01:26:35;;;;;;;1.52;0.60;;;13.40;99.90;;;;;;5019777;28;20491;-51
2022/05/18 01:29:05;;;;;;;2.67;0.73;;;13.60;99.90;;;;;;5005507;28;20296;-49
2022/05/18 01:31:48;;;;;;;4.57;0.80;;;13.50;99.90;;;;;;5026711;28;20188;-46
2022/05/18 01:34:16;;;;;;;1.50;0.60;;;13.40;99.90;;;;;;5021947;28;20230;-48
2022/05/18 01:36:44;;;;;;;3.97;0.70;;;13.40;99.90;;;;;;5020933;28;20216;-47
2022/05/18 01:39:16;;;;;;;0.50;0.50;;;13.40;99.90;;;;;;5026201;28;20254;-46
2022/05/18 01:41:53;;;;;;;2.40;0.73;;;13.30;99.90;;;;;;5024346;28;20689;-46
2022/05/18 01:44:20;;;;;;;1.13;0.63;;;13.30;99.90;;;;;;5020294;28;20199;-47
2022/05/18 01:46:48;;;;;;;0.90;0.70;;;13.20;99.90;;;;;;5009349;28;20232;-48
2022/05/18 01:49:16;;;;;;;0.83;0.70;;;13.30;99.90;;;;;;5031502;28;20200;-47
2022/05/18 01:51:45;;;;;;;2.47;0.50;;;13.20;99.90;;;;;;5023127;28;20212;-46
2022/05/18 01:54:13;;;;;;;1.00;0.50;;;13.20;99.90;;;;;;5019204;28;20216;-49
2022/05/18 01:56:40;;;;;;;3.43;0.97;;;13.20;99.90;;;;;;5017733;28;20247;-47
2022/05/18 01:59:09;;;;;;;1.97;0.73;;;13.10;99.90;;;;;;5019666;28;20195;-46
2022/05/18 02:01:37;;;;;;;2.87;0.80;;;13.10;99.90;;;;;;5013160;28;20588;-48
2022/05/18 02:04:03;;;;;;;3.17;0.93;;;13.10;99.90;;;;;;5023298;28;20282;-47
2022/05/18 02:06:32;;;;;;;1.63;0.60;;;13.10;99.90;;;;;;5022841;28;20224;-45
2022/05/18 02:09:00;;;;;;;1.53;0.60;;;13.00;99.90;;;;;;5022029;28;20269;-47
2022/05/18 02:11:27;;;;;;;0.60;0.60;;;13.00;99.90;;;;;;5028470;28;20657;-50
2022/05/18 02:13:55;;;;;;;1.17;0.63;;;13.00;99.90;;;;;;5020128;28;20215;-51
2022/05/18 02:16:23;;;;;;;1.80;0.60;;;12.90;99.90;;;;;;5001449;28;20225;-50
2022/05/18 02:18:50;;;;;;;0.83;0.70;;;12.90;99.90;;;;;;5014413;28;20196;-47
2022/05/18 02:21:17;;;;;;;4.47;0.70;;;12.90;99.90;;;;;;5020904;28;20192;-48
2022/05/18 02:23:44;;;;;;;2.37;0.73;;;12.90;99.90;;;;;;5022836;28;20262;-51
2022/05/18 02:26:14;;;;;;;4.60;0.83;;;12.90;99.90;;;;;;5016881;28;20315;-48
2022/05/18 02:28:41;;;;;;;1.97;0.70;;;12.90;99.90;;;;;;5022890;28;20215;-45
2022/05/18 02:31:08;;;;;;;2.47;0.80;;;12.80;99.90;;;;;;5011143;28;20219;-46
2022/05/18 02:33:37;;;;;;;2.83;0.60;;;12.80;99.90;;;;;;5004111;28;20208;-47
2022/05/18 02:36:06;;;;;;;2.50;0.70;;;12.70;99.90;;;;;;5021521;28;20228;-46
2022/05/18 02:38:33;;;;;;;1.90;0.70;;;12.70;99.90;;;;;;5021572;28;20203;-48
2022/05/18 02:41:01;;;;;;;3.50;0.60;;;12.70;99.90;;;;;;5004858;28;20581;-48
2022/05/18 02:43:28;;;;;;;1.17;0.70;;;12.70;99.90;;;;;;5019640;28;20196;-47
2022/05/18 02:46:03;;;;;;;1.90;0.70;;;12.70;99.90;;;;;;5014213;28;20227;-46
2022/05/18 02:48:30;;;;;;;2.57;0.70;;;12.70;99.90;;;;;;5006858;28;20212;-47
2022/05/18 02:50:58;;;;;;;1.53;1.00;;;12.70;99.90;;;;;;5026465;28;20207;-52
2022/05/18 02:53:25;;;;;;;1.07;0.60;;;12.70;99.90;;;;;;5019616;28;20240;-45
2022/05/18 02:56:06;;;;;;;1.40;0.73;;;12.70;99.90;;;;;;5021110;28;20219;-47
2022/05/18 02:58:34;;;;;;;2.17;0.87;;;12.70;99.90;;;;;;5022682;28;20195;-45
2022/05/18 03:01:01;;;;;;;1.60;0.80;;;12.70;99.90;;;;;;5018215;28;20212;-50
2022/05/18 03:03:28;;;;;;;4.63;0.83;;;12.70;99.90;;;;;;5020386;28;20203;-45
2022/05/18 03:05:55;;;;;;;1.97;1.10;;;12.70;99.90;;;;;;5009930;28;20220;-45
2022/05/18 03:08:23;;;;;;;0.70;0.70;;;12.70;99.90;;;;;;5023978;28;20199;-50
2022/05/18 03:10:50;;;;;;;2.30;0.80;;;12.70;99.90;;;;;;5027599;28;20676;-50
2022/05/18 03:13:17;;;;;;;2.17;0.67;;;12.70;99.90;;;;;;5019418;28;20219;-49
2022/05/18 03:15:46;;;;;;;2.20;1.20;;;12.70;99.90;;;;;;5020835;28;20324;-46
2022/05/18 03:18:13;;;;;;;3.23;0.80;;;12.70;99.90;;;;;;5018499;28;20207;-45
2022/05/18 03:23:36;;;;;;;1.03;0.90;;;12.70;99.90;;;;;;5020793;28;20661;-45
2022/05/18 03:26:06;;;;;;;1.93;1.00;;;12.70;99.90;;;;;;5018660;28;20224;-48
2022/05/18 03:28:33;;;;;;;1.87;0.83;;;12.70;99.90;;;;;;5017812;28;20196;-47
2022/05/18 03:31:00;;;;;;;2.23;0.63;;;12.70;99.90;;;;;;5019039;28;20208;-47
2022/05/18 03:33:27;;;;;;;2.97;0.80;;;12.70;99.90;;;;;;5021355;28;20196;-48
2022/05/18 03:35:55;;;;;;;2.23;0.53;;;12.60;99.90;;;;;;5004263;28;20219;-49
2022/05/18 03:38:22;;;;;;;3.93;1.00;;;12.60;99.90;;;;;;5024635;28;20294;-48
2022/05/18 03:40:50;;;;;;;2.30;0.80;;;12.60;99.90;;;;;;5023247;28;20199;-48
2022/05/18 03:43:17;;;;;;;1.57;1.03;;;12.60;99.90;;;;;;5018557;28;20326;-45
2022/05/18 03:45:44;;;;;;;1.30;0.80;;;12.60;99.90;;;;;;5017677;28;20211;-48
2022/05/18 03:48:12;;;;;;;2.70;0.70;;;12.60;99.90;;;;;;5012654;28;20939;-48
2022/05/18 03:50:40;;;;;;;2.97;0.80;;;12.60;99.90;;;;;;5004106;28;20295;-48
2022/05/18 03:53:09;;;;;;;2.67;0.70;;;12.70;99.90;;;;;;5018947;28;20196;-45
2022/05/18 03:55:38;;;;;;;1.07;0.80;;;12.70;99.90;;;;;;5021768;28;20220;-44
2022/05/18 03:58:07;;;;;;;1.37;0.80;;;12.70;99.90;;;;;;5015281;28;20208;-45
2022/05/18 04:00:34;;;;;;;2.97;1.00;;;12.70;99.90;;;;;;5023192;28;20201;-45
2022/05/18 04:03:02;;;;;;;2.60;0.80;;;12.70;99.90;;;;;;5020831;28;20209;-48
2022/05/18 04:05:30;;;;;;;1.40;0.90;;;12.70;99.90;;;;;;5010317;28;20688;-48
2022/05/18 04:07:57;;;;;;;5.30;0.93;;;12.70;99.90;;;;;;5021815;28;20216;-46
2022/05/18 04:10:23;;;;;;;1.60;1.20;;;12.70;99.90;;;;;;5025883;28;20199;-45
2022/05/18 04:12:50;;;;;;;2.67;0.90;;;12.70;99.90;;;;;;5023511;28;20294;-48
2022/05/18 04:15:18;;;;;;;3.37;0.90;;;12.70;99.90;;;;;;5017836;28;20318;-49
2022/05/18 04:17:46;;;;;;;2.03;1.00;;;12.70;99.90;;;;;;5023803;28;20748;-47
2022/05/18 04:20:17;;;;;;;1.47;0.83;;;12.70;99.90;;;;;;5004938;28;20208;-47
2022/05/18 04:22:45;;;;;;;2.63;0.90;;;12.70;99.90;;;;;;5032956;28;20200;-48
2022/05/18 04:25:14;;;;;;;1.67;0.97;;;12.70;99.90;;;;;;5017104;28;20191;-45
2022/05/18 04:27:41;;;;;;;2.30;0.70;;;12.80;99.90;;;;;;5024423;28;20634;-48
2022/05/18 04:30:09;;;;;;;2.57;1.20;;;12.80;99.90;;;;;;5009020;28;20277;-44
2022/05/18 04:32:39;;;;;;;4.50;1.07;;;12.80;99.90;;;;;;5013544;28;20204;-50
2022/05/18 04:35:08;;;;;;;1.43;0.83;;;12.80;99.90;;;;;;5016052;28;20230;-50
2022/05/18 04:37:35;;;;;;;2.93;1.40;;;12.80;99.90;;;;;;5009929;28;20224;-45
2022/05/18 04:40:02;;;;;;;1.47;1.23;;;12.90;99.90;;;;;;5006265;28;20240;-50
2022/05/18 04:42:29;;;;;;;4.03;1.23;;;12.90;99.90;;;;;;5025765;28;20196;-45
2022/05/18 04:44:56;;;;;;;2.90;1.50;;;13.00;99.90;;;;;;5016368;28;20668;-48
2022/05/18 04:47:23;;;;;;;1.30;0.90;;;13.00;99.90;;;;;;5011900;28;20212;-44
2022/05/18 04:49:51;;;;;;;3.70;1.00;;;13.10;99.90;;;;;;5019868;28;20751;-46
2022/05/18 04:52:20;;;;;;;1.93;0.80;;;13.10;99.90;;;;;;5003502;28;20242;-47
2022/05/18 04:54:47;;;;;;;2.70;1.10;;;13.20;99.90;;;;;;5031882;28;20200;-46
2022/05/18 04:57:15;;;;;;;5.13;0.90;;;13.20;99.90;;;;;;5019473;28;20216;-50
2022/05/18 04:59:42;;;;;;;1.73;0.80;;;13.30;99.90;;;;;;5019283;28;20215;-48
2022/05/18 05:02:10;;;;;;;1.97;1.10;;;13.30;99.90;;;;;;5019966;28;20200;-47
2022/05/18 05:04:37;;;;;;;2.23;1.10;;;13.40;99.90;;;;;;5023143;28;20196;-47
2022/05/18 05:07:06;;;;;;;1.53;0.90;;;13.40;99.90;;;;;;4995068;28;20220;-49
2022/05/18 05:09:33;;;;;;;1.80;0.97;;;13.50;99.90;;;;;;5021502;28;20250;-47
2022/05/18 05:12:00;;;;;;;4.10;1.00;;;13.60;99.90;;;;;;5023304;28;20204;-48
2022/05/18 05:14:27;;;;;;;1.73;0.93;;;13.60;99.90;;;;;;5022044;28;20208;-47
2022/05/18 05:16:54;;;;;;;3.10;1.37;;;13.70;99.90;;;;;;5015787;28;20638;-47
2022/05/18 05:19:21;;;;;;;4.00;1.10;;;13.70;99.90;;;;;;5015267;28;20196;-47
2022/05/18 05:21:48;;;;;;;3.90;1.00;;;13.70;99.90;;;;;;5018890;28;20204;-45
2022/05/18 05:24:18;;;;;;;2.23;1.20;;;13.80;99.90;;;;;;5002718;28;20215;-44
2022/05/18 05:26:45;;;;;;;1.33;1.23;;;13.80;99.90;;;;;;5031858;28;20399;-44
2022/05/18 05:29:14;;;;;;;3.33;1.30;;;13.90;99.90;;;;;;5018665;28;20251;-45
2022/05/18 05:31:41;;;;;;;2.17;1.30;;;14.00;99.90;;;;;;5014767;28;20565;-44
2022/05/18 05:34:08;;;;;;;1.77;1.07;;;14.10;99.90;;;;;;5011396;28;20226;-50
2022/05/18 05:36:36;;;;;;;3.77;1.20;;;14.10;99.90;;;;;;5019498;28;20723;-44
2022/05/18 05:39:03;;;;;;;1.47;1.37;;;14.20;99.90;;;;;;5003564;28;20213;-50
2022/05/18 05:41:31;;;;;;;1.50;1.10;;;14.30;99.90;;;;;;5023693;28;20202;-46
2022/05/18 05:43:58;;;;;;;4.30;1.30;;;;;;;;;;5020389;28;20200;-49
2022/05/18 05:46:27;;;;;;;6.77;1.90;;;14.50;99.90;;;;;;5002166;28;20587;-45
2022/05/18 05:48:55;;;;;;;2.80;1.30;;;14.50;99.90;;;;;;5020116;28;20207;-45
2022/05/18 05:51:23;;;;;;;3.50;1.53;;;14.50;99.90;;;;;;5019724;28;20214;-45
2022/05/18 05:53:51;;;;;;;3.37;1.33;;;14.60;99.90;;;;;;5016753;28;20203;-51
2022/05/18 05:56:20;;;;;;;1.97;1.30;;;14.70;99.90;;;;;;5006722;28;20220;-46
2022/05/18 05:58:49;;;;;;;2.60;1.23;;;14.80;99.90;;;;;;5022546;28;20203;-45
2022/05/18 06:01:19;;;;;;;6.63;1.63;;;14.80;99.90;;;;;;5014817;28;20550;-45
2022/05/18 06:03:47;;;;;;;4.10;1.73;;;15.00;99.90;;;;;;5015622;28;20212;-44
2022/05/18 06:06:14;;;;;;;2.07;1.57;;;15.10;99.90;;;;;;5020730;28;20692;-47
2022/05/18 06:08:42;;;;;;;1.60;1.40;;;15.10;99.90;;;;;;5006298;28;20207;-45
2022/05/18 06:11:10;;;;;;;2.37;1.43;;;15.20;99.90;;;;;;5011273;28;20278;-48
2022/05/18 06:13:37;;;;;;;3.33;1.60;;;15.20;99.90;;;;;;5020754;28;20453;-47
2022/05/18 06:16:07;;;;;;;4.77;2.20;;;15.30;99.90;;;;;;5017805;28;21037;-45
2022/05/18 06:18:35;;;;;;;3.37;1.70;;;15.50;99.90;;;;;;5020025;28;20201;-44
2022/05/18 06:21:03;;;;;;;2.93;1.90;;;15.40;99.90;;;;;;5019803;28;20558;-49
2022/05/18 06:23:29;;;;;;;2.97;1.80;;;15.40;99.90;;;;;;5016760;28;20492;-47
2022/05/18 06:26:00;;;;;;;2.53;1.97;;;15.50;99.90;;;;;;5014270;28;20633;-50
2022/05/18 06:28:27;;;;;;;2.33;1.60;;;15.40;99.90;;;;;;5009656;28;20215;-47
2022/05/18 06:30:54;;;;;;;1.80;1.53;;;15.50;99.90;;;;;;5012408;28;20211;-47
2022/05/18 06:33:22;;;;;;;4.75;2.10;;;15.50;99.90;;;;;;5021742;28;20446;-45
2022/05/18 06:35:51;;;;;;;4.90;2.30;;;15.70;99.90;;;;;;5016032;28;20222;-45
2022/05/18 06:38:18;;;;;;;4.70;2.30;;;15.70;99.90;;;;;;5010756;28;20231;-46
2022/05/18 06:43:30;;;;;;;3.47;2.17;;;15.70;99.90;;;;;;5006614;28;21009;-47
2022/05/18 06:45:57;;;;;;;3.10;2.00;;;15.80;99.90;;;;;;5015008;28;20235;-47
2022/05/18 06:48:25;;;;;;;2.90;2.00;;;15.90;99.90;;;;;;5012156;28;20275;-45
2022/05/18 06:50:53;;;;;;;4.10;2.17;;;;;;;;;;5021609;28;20200;-47
2022/05/18 06:53:20;;;;;;;2.57;2.30;;;16.10;99.90;;;;;;5010964;28;20299;-44
2022/05/18 06:55:47;;;;;;;3.57;2.10;;;16.10;99.90;;;;;;5018530;28;20238;-45
2022/05/18 06:58:14;;;;;;;2.97;2.13;;;16.20;99.90;;;;;;5007091;28;20234;-47
2022/05/18 07:00:41;;;;;;;3.33;2.20;;;16.30;99.90;;;;;;5022119;28;21038;-45
2022/05/18 07:03:08;;;;;;;2.40;2.10;;;16.40;99.90;;;;;;5012858;28;20229;-46
2022/05/18 07:05:36;;;;;;;2.57;1.97;;;16.50;99.90;;;;;;5018965;28;20194;-43
2022/05/18 07:08:04;;;;;;;4.47;2.07;;;16.50;99.90;;;;;;5018002;28;20625;-46
2022/05/18 07:10:31;;;;;;;5.10;2.00;;;16.60;99.90;;;;;;5019790;28;20202;-46
2022/05/18 07:12:57;;;;;;;2.30;2.10;;;16.60;99.90;;;;;;5006671;28;20291;-47
2022/05/18 07:15:25;;;;;;;3.37;2.67;;;16.60;99.90;;;;;;5021934;28;20207;-43
2022/05/18 07:17:51;;;;;;;4.70;2.50;;;16.60;99.90;;;;;;5021397;28;20227;-46
2022/05/18 07:20:19;;;;;;;2.60;2.27;;;16.60;99.90;;;;;;5019996;28;20196;-46
2022/05/18 07:22:47;;;;;;;2.97;2.43;;;16.60;99.90;;;;;;5020445;28;20188;-43
2022/05/18 07:25:14;;;;;;;4.37;2.60;;;16.60;99.90;;;;;;5014299;28;20568;-48
2022/05/18 07:27:41;;;;;;;2.80;2.40;;;16.60;99.90;;;;;;5019051;28;20924;-43
2022/05/18 07:30:09;;;;;;;3.70;2.40;;;16.60;99.90;;;;;;5008724;28;20204;-43
2022/05/18 07:32:37;;;;;;;4.47;2.43;;;16.70;99.90;;;;;;5024686;28;20196;-43
2022/05/18 07:35:05;;;;;;;4.53;3.10;;;16.70;99.90;;;;;;5024445;28;20204;-45
2022/05/18 07:37:31;;;;;;;5.47;2.90;;;16.60;99.90;;;;;;5021775;28;20224;-44
2022/05/18 07:39:59;;;;;;;3.40;2.40;;;16.70;99.90;;;;;;5022435;28;20207;-47
2022/05/18 07:42:26;;;;;;;2.47;2.27;;;16.70;99.90;;;;;;5016518;28;20212;-44
2022/05/18 07:44:54;;;;;;;4.50;2.43;;;16.70;99.90;;;;;;5010764;28;20200;-44
2022/05/18 07:47:28;;;;;;;3.77;2.80;;;16.70;99.90;;;;;;5023119;28;20305;-49
2022/05/18 07:49:55;;;;;;;2.83;2.63;;;16.70;99.90;;;;;;5024177;28;20206;-47
2022/05/18 07:52:22;;;;;;;4.53;3.40;;;16.80;99.90;;;;;;5023200;28;20653;-46
2022/05/18 07:54:48;;;;;;;6.13;2.97;;;16.90;99.90;;;;;;5018634;28;20214;-44
2022/05/18 07:57:17;;;;;;;5.60;2.83;;;16.90;99.90;;;;;;5024002;28;20684;-47
2022/05/18 07:59:44;;;;;;;4.33;3.07;;;17.00;99.90;;;;;;5009422;28;21254;-43
2022/05/18 08:02:10;;;;;;;5.23;3.17;;;17.00;99.90;;;;;;5029918;28;20680;-43
2022/05/18 08:04:37;;;;;;;5.07;3.03;;;17.10;99.90;;;;;;5026912;28;20196;-43
2022/05/18 08:07:04;;;;;;;3.73;3.03;;;17.20;99.90;;;;;;5025409;28;20212;-44
2022/05/18 08:15:05;;;;;;;4.17;3.23;;;17.30;99.90;;;;;;5017182;28;23542;-43
2022/05/18 08:15:06;;;;;;;3.90;3.60;;;17.50;99.90;;;;;;4960611;28;20302;-46
2022/05/18 08:17:33;;;;;;;3.60;3.30;;;17.60;99.90;;;;;;5023888;28;20221;-46
2022/05/18 08:20:00;;;;;;;5.57;3.47;;;17.80;99.90;;;;;;5016118;28;20211;-45
2022/05/18 08:22:27;;;;;;;4.60;3.20;;;18.00;99.90;;;;;;5016991;28;20281;-46
2022/05/18 08:24:54;;;;;;;3.97;3.30;;;18.20;99.90;;;;;;5017673;28;20219;-43
2022/05/18 08:27:22;;;;;;;4.40;3.40;;;18.30;99.90;;;;;;5016870;28;20204;-43
2022/05/18 08:29:49;;;;;;;3.73;3.43;;;18.30;99.90;;;;;;5020203;28;20270;-46
2022/05/18 08:32:16;;;;;;;4.37;3.83;;;18.30;99.90;;;;;;5011043;28;20275;-44
2022/05/18 08:34:42;;;;;;;5.70;3.50;;;18.30;99.90;;;;;;5023579;28;20208;-45
2022/05/18 08:37:10;;;;;;;4.73;4.13;;;18.40;99.90;;;;;;5014706;28;20915;-43
2022/05/18 08:39:37;;;;;;;5.70;3.80;;;18.50;99.90;;;;;;5020892;28;20211;-47
2022/05/18 08:42:04;;;;;;;6.57;3.60;;;18.50;99.90;;;;;;5012687;28;20208;-44
2022/05/18 08:44:36;;;;;;;5.00;4.00;;;18.60;99.90;;;;;;5017738;28;20210;-43
2022/05/18 08:47:11;;;;;;;4.10;3.80;;;18.70;99.90;;;;;;5006370;28;20696;-42
2022/05/18 08:49:50;;;;;;;4.27;3.83;;;18.90;99.90;;;;;;5025962;28;20204;-43
2022/05/18 08:52:39;;;;;;;5.97;4.57;;;19.00;99.90;;;;;;5015227;28;20207;-43
2022/05/18 08:55:26;;;;;;;5.10;4.00;;;19.20;99.90;;;;;;5016227;28;20196;-43
2022/05/18 08:57:55;;;;;;;5.57;4.10;;;19.30;99.90;;;;;;5009696;28;20602;-44
2022/05/18 09:00:28;;;;;;;5.47;4.97;;;19.40;99.90;;;;;;4997802;28;21805;-42
2022/05/18 09:03:00;;;;;;;5.67;4.73;;;19.50;99.90;;;;;;5031062;28;20227;-44
2022/05/18 09:05:33;;;;;;;5.10;4.60;;;19.50;99.90;;;;;;5014967;28;20207;-44
2022/05/18 09:08:05;;;;;;;5.03;4.60;;;19.60;99.90;;;;;;5014377;28;20232;-46
2022/05/18 09:10:36;;;;;;;4.40;3.93;;;19.70;99.90;;;;;;5017360;28;20191;-43
2022/05/18 09:13:03;;;;;;;4.30;3.90;;;19.80;99.90;;;;;;5018778;28;20283;-46
2022/05/18 09:15:36;;;;;;;5.30;4.17;;;19.80;99.90;;;;;;4994587;28;20766;-44
2022/05/18 09:18:12;;;;;;;4.90;3.93;;;20.00;99.90;;;;;;5002218;28;20220;-43
2022/05/18 09:20:46;;;;;;;5.80;4.10;;;20.10;99.90;;;;;;5023515;28;20975;-43
2022/05/18 09:23:29;;;;;;;5.13;4.07;;;20.20;99.90;;;;;;5015872;28;20220;-45
2022/05/18 09:26:11;;;;;;;4.97;4.43;;;20.30;99.90;;;;;;5019070;28;20204;-44
2022/05/18 09:28:52;;;;;;;8.53;4.90;;;20.50;99.90;;;;;;5016712;28;20203;-48
2022/05/18 09:31:44;;;;;;;4.80;4.40;;;20.60;99.90;;;;;;5023946;28;20602;-45
2022/05/18 09:34:25;;;;;;;4.77;4.23;;;20.60;99.90;;;;;;5007548;28;20310;-47
2022/05/18 09:37:06;;;;;;;5.17;4.67;;;20.70;99.90;;;;;;5014482;28;20243;-48
2022/05/18 09:39:39;;;;;;;7.40;4.93;;;20.90;99.90;;;;;;5018131;28;20192;-43
2022/05/18 09:42:11;;;;;;;6.53;4.33;;;21.00;99.90;;;;;;5024218;28;20286;-45
2022/05/18 09:44:44;;;;;;;5.20;4.70;;;21.00;99.90;;;;;;5011245;28;20200;-55
2022/05/18 09:47:21;;;;;;;6.17;4.13;;;21.10;99.90;;;;;;5019783;28;20269;-53
2022/05/18 09:49:52;;;;;;;5.00;4.53;;;21.10;99.90;;;;;;5005280;28;20208;-52
2022/05/18 09:52:24;;;;;;;5.13;4.35;;;21.30;99.90;;;;;;5023701;28;20278;-52
2022/05/18 09:54:54;;;;;;;4.30;3.90;;;21.30;99.90;;;;;;5016897;28;20196;-53
2022/05/18 09:57:24;;;;;;;5.53;5.00;;;21.40;99.90;;;;;;5013145;28;20231;-50
2022/05/18 09:59:56;;;;;;;5.73;4.80;;;21.60;99.90;;;;;;5012981;28;20668;-49
2022/05/18 10:07:58;;;;;;;7.25;5.15;;;21.90;99.90;;;;;;5019632;28;20239;-51
2022/05/18 10:10:29;;;;;;;6.82;5.03;;;22.00;99.90;;;;;;5017986;28;20196;-53
2022/05/18 10:13:03;;;;;;;6.00;5.50;;;22.20;99.90;;;;;;5024980;28;20204;-52
2022/05/18 10:15:37;;;;;;;6.00;5.25;;;22.30;99.90;;;;;;5011233;28;20995;-48
2022/05/18 10:18:16;;;;;;;6.93;4.65;;;22.30;99.90;;;;;;5021595;28;20222;-47
2022/05/18 10:21:00;;;;;;;5.85;4.38;;;22.30;99.90;;;;;;5006837;28;20211;-49
2022/05/18 10:23:33;;;;;;;6.72;5.63;;;22.50;99.90;;;;;;5009288;28;20215;-55
2022/05/18 10:26:01;;;;;;;5.88;5.05;;;22.50;99.90;;;;;;5017287;28;20281;-49
2022/05/18 10:28:29;;;;;;;5.80;4.70;;;22.60;99.90;;;;;;5019132;28;20204;-51
2022/05/18 10:30:59;;;;;;;6.63;4.97;;;22.70;99.90;;;;;;5015299;28;20226;-49
2022/05/18 10:33:32;;;;;;;6.03;5.07;;;22.70;99.90;;;;;;5011279;28;20613;-50
2022/05/18 10:36:10;;;;;;;6.00;5.55;;;22.80;99.90;;;;;;4999433;28;20739;-49
2022/05/18 10:38:39;;;;;;;5.22;4.82;;;22.90;99.90;;;;;;5014487;28;20223;-47
2022/05/18 10:41:16;;;;;;;8.15;4.95;;;23.00;99.90;;;;;;5022002;28;20204;-47
2022/05/18 10:43:45;;;;;;;5.40;4.90;;;23.10;99.90;;;;;;5021814;28;20195;-49
2022/05/18 10:46:16;;;;;;;5.57;5.03;;;23.10;99.90;;;;;;5013574;28;20592;-55
2022/05/18 10:48:57;;;;;;;6.05;5.45;;;23.20;99.90;;;;;;5020056;28;20965;-47
2022/05/18 10:51:33;;;;;;;6.00;5.40;;;23.30;99.90;;;;;;5001423;28;20200;-52
2022/05/18 10:54:15;;;;;;;6.97;5.45;;;23.30;99.90;;;;;;5014227;28;20351;-51
2022/05/18 10:56:43;;;;;;;6.82;5.38;;;23.40;99.90;;;;;;5019666;28;20962;-54
2022/05/18 10:59:40;;;;;;;5.38;4.97;;;23.40;99.90;;;;;;5015673;28;20204;-51
2022/05/18 11:02:13;;;;;;;6.18;5.63;;;23.40;99.90;;;;;;5011731;28;20188;-53
2022/05/18 11:04:53;;;;;;;8.55;5.57;;;23.50;99.90;;;;;;5011622;28;20211;-51
2022/05/18 11:07:22;;;;;;;6.15;5.65;;;23.60;99.90;;;;;;4996326;28;20238;-51
2022/05/18 11:09:49;;;;;;;6.30;5.80;;;23.70;99.90;;;;;;5020478;28;20199;-54
2022/05/18 11:12:33;;;;;;;8.18;5.30;;;23.70;99.90;;;;;;5021665;28;20196;-53
2022/05/18 11:15:04;;;;;;;5.93;5.30;;;23.80;99.90;;;;;;5022365;28;20215;-54
2022/05/18 11:17:43;;;;;;;5.97;5.53;;;23.90;99.90;;;;;;5018343;28;20208;-53
2022/05/18 11:20:23;;;;;;;6.28;5.68;;;24.00;99.90;;;;;;5022550;28;20204;-50
2022/05/18 11:22:58;;;;;;;6.60;6.00;;;24.10;99.90;;;;;;5007594;28;20696;-55
2022/05/18 11:25:34;;;;;;;7.15;5.28;;;24.10;99.90;;;;;;5015738;28;21406;-53
2022/05/18 11:28:08;;;;;;;8.00;5.78;;;24.20;99.90;;;;;;5020311;28;20270;-54
2022/05/18 11:30:41;;;;;;;7.35;6.10;;;24.30;99.90;;;;;;5021098;28;20196;-50
2022/05/18 11:33:20;;;;;;;6.28;5.68;;;24.30;99.90;;;;;;5009141;28;21142;-51
2022/05/18 11:36:01;;;;;;;6.43;5.82;;;24.30;99.90;;;;;;5022595;28;20204;-54
2022/05/18 11:38:48;;;;;;;6.15;5.55;;;24.40;99.90;;;;;;5001578;28;20331;-52
2022/05/18 11:41:35;;;;;;;6.30;5.85;;;24.60;99.90;;;;;;5002153;28;20216;-51
2022/05/18 11:44:06;;;;;;;6.45;5.88;;;24.70;99.90;;;;;;5019812;28;20227;-52
2022/05/18 11:46:44;;;;;;;6.88;6.32;;;24.70;99.90;;;;;;5021178;28;20216;-54
2022/05/18 11:49:17;;;;;;;6.63;6.03;;;24.80;99.90;;;;;;5013711;28;20204;-54
2022/05/18 11:51:57;;;;;;;6.35;5.95;;;24.80;99.90;;;;;;5025043;28;20200;-53
2022/05/18 11:54:38;;;;;;;7.00;6.35;;;25.00;99.90;;;;;;5005316;28;20802;-54
2022/05/18 11:57:14;;;;;;;6.68;6.20;;;25.10;99.90;;;;;;5022269;28;20216;-52
2022/05/18 11:59:57;;;;;;;6.10;5.60;;;25.10;99.90;;;;;;5019481;28;20280;-56
2022/05/18 12:03:05;;;;;;;6.85;6.20;;;25.10;99.90;;;;;;5007181;28;20351;-57
2022/05/18 12:05:56;;;;;;;6.93;6.28;;;25.20;99.90;;;;;;5021386;28;20192;-54
2022/05/18 12:09:07;;;;;;;7.13;6.50;;;25.30;99.90;;;;;;5023109;28;20218;-48
2022/05/18 12:11:46;;;;;;;6.53;5.90;;;25.40;99.90;;;;;;5001709;28;20887;-50
2022/05/18 12:14:23;;;;;;;8.73;6.60;;;25.60;99.90;;;;;;5014468;28;20211;-55
2022/05/18 12:17:01;;;;;;;7.25;6.28;;;25.70;99.90;;;;;;5017476;28;20307;-50
2022/05/18 12:19:33;;;;;;;11.60;6.38;;;25.60;99.90;;;;;;5012127;28;20199;-54
2022/05/18 12:22:04;;;;;;;6.70;6.10;;;25.60;99.90;;;;;;5019547;28;20576;-56
2022/05/18 12:24:34;;;;;;;6.15;5.65;;;25.80;99.90;;;;;;5001389;28;24012;-55
2022/05/18 12:27:02;;;;;;;6.68;6.13;;;25.90;99.90;;;;;;5019885;28;20243;-49
2022/05/18 12:29:30;;;;;;;6.13;5.53;;;26.00;99.90;;;;;;5016122;28;20207;-54
2022/05/18 12:31:58;;;;;;;5.97;5.57;;;26.10;99.90;;;;;;5022208;28;20204;-51
2022/05/18 12:34:27;;;;;;;6.72;6.05;;;26.30;99.90;;;;;;5013129;28;20215;-55
2022/05/18 12:36:58;;;;;;;6.07;5.57;;;26.40;99.90;;;;;;5022369;28;20230;-54
2022/05/18 12:39:43;;;;;;;6.35;5.78;;;26.50;99.90;;;;;;5006129;28;21780;-55
2022/05/18 12:42:15;;;;;;;6.65;5.78;;;26.50;99.90;;;;;;5021749;28;20204;-56
2022/05/18 12:44:43;;;;;;;5.80;5.40;;;;;;;;;;5017666;28;20205;-54
2022/05/18 12:47:18;;;;;;;6.00;5.40;;;26.80;99.90;;;;;;5014438;28;20703;-55
2022/05/18 12:49:47;;;;;;;5.97;5.47;;;26.90;99.30;;;;;;5005599;28;20199;-58
2022/05/18 12:52:18;;;;;;;5.97;5.57;;;27.20;98.40;;;;;;5018386;28;20202;-55
2022/05/18 12:54:51;;;;;;;6.20;5.60;;;27.30;98.10;;;;;;5013976;28;20231;-56
2022/05/18 12:57:45;;;;;;;10.13;5.68;;;27.40;97.60;;;;;;5027555;28;20321;-55
2022/05/18 13:00:47;;;;;;;6.53;5.50;;;27.70;96.70;;;;;;5019518;28;20194;-56
2022/05/18 13:03:41;;;;;;;6.00;5.60;;;27.90;96.40;;;;;;5022119;28;20191;-53
2022/05/18 13:06:22;;;;;;;5.30;4.80;;;28.00;96.40;;;;;;5014741;28;20224;-55
2022/05/18 13:09:00;;;;;;;5.13;4.82;;;28.40;95.60;;;;;;5022163;28;20223;-56
2022/05/18 13:11:49;;;;;;;5.13;4.72;;;28.40;94.90;;;;;;5014736;28;20269;-56
2022/05/18 13:14:38;;;;;;;5.70;5.20;;;28.50;94.10;;;;;;5024228;28;20211;-56
2022/05/18 13:17:14;;;;;;;5.50;5.00;;;28.70;94.80;;;;;;5018542;28;20216;-56
2022/05/18 13:19:48;;;;;;;4.85;4.53;;;29.00;93.70;;;;;;5011787;28;20223;-56
2022/05/18 13:22:27;;;;;;;5.20;4.90;;;29.20;92.60;;;;;;5014413;28;20208;-55